• Join FlightAware (Why Join?)
  • Login
  • US Flag 
11:37AM EDT


 

Airport Tracker/Info


-or-


 

Live Flight TrackerFlight Track Log ✈ CNS22 ✈ 14-May-2013 ✈ KAVL - KATL

Flight Track Log - Related Links

Times and Time Zones

All times are in EDT time to prevent confusion due to time zone crossing. See the CNS22 flight status page for this flight to view local times or setup timezone preferences in your user account.

Time Position Orientation Groundspeed Altitude Reporting Facility
EDT Latitude Longitude Course Direction KTS MPH feet Rate Location/Type
10:52AM 35.4328 -82.6344 219° Southwest 166 191 6,500  Level Atlanta Center
10:53AM 35.3914 -82.6758 219° Southwest 186 214 8,000 1,260 Climbing Atlanta Center
10:54AM 35.3481 -82.7222 221° Southwest 210 242 9,100 1,200 Climbing Atlanta Center
10:55AM 35.3047 -82.7611 216° Southwest 213 245 10,500 1,320 Climbing Atlanta Center
10:56AM 35.2614 -82.8075 221° Southwest 213 245 11,800 1,200 Climbing Atlanta Center
10:57AM 35.2139 -82.8542 219° Southwest 218 251 13,000 1,080 Climbing Atlanta Center
10:58AM 35.1642 -82.9056 220° Southwest 229 264 14,000 900 Climbing Atlanta Center
10:59AM 35.1167 -82.9569 222° Southwest 229 264 14,900 900 Climbing Atlanta Center
11:00AM 35.0672 -83.0058 219° Southwest 235 270 15,900 780 Climbing Atlanta Center
11:01AM 35.0194 -83.0572 221° Southwest 235 270 16,500 300 Climbing Atlanta Center
11:02AM 34.9636 -83.1111 218° Southwest 241 277 16,500  Level Atlanta Center
11:03AM 34.9139 -83.1625 220° Southwest 256 295 16,500  Level Atlanta Center
11:04AM 34.8581 -83.2186 220° Southwest 261 300 16,500  Level Atlanta Center
11:05AM 34.7936 -83.2850 220° Southwest 267 307 16,500  Level Atlanta Center
11:06AM 34.7397 -83.3386 219° Southwest 267 307 16,500  Level Atlanta Center
11:07AM 34.6817 -83.3997 221° Southwest 273 314 16,500  Level Atlanta Center
11:08AM 34.6297 -83.4456 216° Southwest 273 314 16,500  Level Atlanta Center
11:09AM 34.5675 -83.5117 221° Southwest 278 320 16,500  Level Atlanta Center
11:10AM 34.5092 -83.5725 221° Southwest 278 320 16,500  Level Atlanta Center
11:11AM 34.4489 -83.6281 217° Southwest 278 320 16,500  Level Atlanta Center
11:12AM 34.3928 -83.6889 222° Southwest 278 320 16,500  Level Atlanta Center
11:13AM 34.3325 -83.7419 216° Southwest 278 320 16,500 -120 Level Atlanta Center
11:14AM 34.2742 -83.8025 221° Southwest 278 320 16,300 -660 Descending Atlanta Center
11:15AM 34.2117 -83.8606 218° Southwest 284 327 15,200 -1,380 Descending Atlanta Center
11:16AM 34.1511 -83.9258 222° Southwest 284 327 13,600 -1,560 Descending Atlanta Center
11:17AM 34.1000 -83.9667 213° Southwest 282 325 12,500 -1,440 Descending Atlanta TRACON
11:18AM 34.0500 -84.0333 228° Southwest 274 315 11,100 -1,500 Descending Atlanta TRACON
11:19AM 33.9833 -84.0833 212° Southwest 275 316 9,600 -1,500 Descending Atlanta TRACON
11:20AM 33.9333 -84.1500 228° Southwest 266 306 8,200 -1,440 Descending Atlanta TRACON
11:21AM 33.8667 -84.2000 212° Southwest 257 296 6,800 -1,440 Descending Atlanta TRACON
11:22AM 33.8167 -84.2333 209° Southwest 245 282 5,400 -1,440 Descending Atlanta TRACON
11:23AM 33.7500 -84.2167 168° South 240 276 4,100 -780 Descending Atlanta TRACON
11:24AM 33.7167 -84.1667 129° Southeast 206 237 4,000 -60 Descending Atlanta TRACON
11:25AM 33.6667 -84.1667 180° South 197 227 4,000  Level Atlanta TRACON
11:26AM 33.6500 -84.2167 248° West 164 189 4,000 -420 Level Atlanta TRACON
11:27AM 33.6500 -84.2833 270° West 181 208 3,200 -900 Descending Atlanta TRACON
11:28AM 33.6500 -84.3333 270° West 161 185 2,200 -840 Descending Atlanta TRACON
11:29AM 33.6500 -84.3833 270° West 121 139 1,500 -720 Descending Atlanta TRACON
11:31AM 33.6333 -84.4167 220° Southwest  Level FlightAware Approximate
11:38AM 33.6367 -84.4279 220° Southwest  Level Estimated
11:39AM 33.6367 -84.4279 220° Southwest  Level Estimated